Terminal Aerodrome Forecast
Issued by NWS

Home | Current Version | Previous Version | Text Only | Print | Product List | Glossary On
Versions: 1 2 3 4 5 6 7 8 9 10 11 12 13 14 15 16 17 18 19 20 21 22 23
000
FTUS43 KDLH 201612 AAA
TAFHYR
TAF AMD
KHYR 201612Z 2016/2112 14005KT 6SM -RA BR SCT035 OVC060
      TEMPO 2017/2019 3SM -RA BR BKN028
     FM201900 13004KT 2SM -RA BR OVC007
     FM210000 14003KT 4SM -RA BR OVC007=

USA.gov is the U.S. government's official web portal to all federal, state and local government web resources and services.